Time;durP1;ratioP1;P1;durP2;ratioP2;P2;SDS_P1;SDS_P2;PMS_P1;PMS_P2;Temp;Humidity;BMP_temperature;BMP_pressure;BME280_temperature;BME280_humidity;BME280_pressure;Samples;Min_cycle;Max_cycle;Signal;HPM_P1;HPM_P2
2023/12/18 00:01:14;;;;;;;;;;;;;;;5.08;63.11;100955.72;4492660;31;34678;-89
2023/12/18 00:03:42;;;;;;;;;;;;;;;5.06;63.25;100952.16;4486482;31;34896;-87
2023/12/18 00:06:09;;;;;;;;;;;;;;;4.95;63.52;100951.47;4486466;31;33518;-88
2023/12/18 00:08:37;;;;;;;;;;;;;;;5.06;63.32;100953.03;4458312;31;33390;-87
2023/12/18 00:11:07;;;;;;;;;;;;;;;5.06;63.36;100957.31;4481487;31;32710;-89
2023/12/18 00:13:34;;;;;;;;;;;;;;;5.05;63.35;100958.09;4488501;31;32701;-88
2023/12/18 00:16:03;;;;;;;;;;;;;;;5.10;63.29;100957.59;4488349;31;33699;-87
2023/12/18 00:18:30;;;;;;;;;;;;;;;5.15;63.16;100963.00;4486118;31;35293;-87
2023/12/18 00:20:57;;;;;;;;;;;;;;;5.15;63.15;100960.44;4493282;31;32789;-94
2023/12/18 00:23:25;;;;;;;;;;;;;;;5.25;63.04;100952.50;4493728;31;34176;-87
2023/12/18 00:25:52;;;;;;;;;;;;;;;5.32;62.65;100962.41;4473179;31;35106;-88
2023/12/18 00:28:20;;;;;;;;;;;;;;;5.23;62.82;100961.84;4472866;31;34651;-87
2023/12/18 00:30:47;;;;;;;;;;;;;;;5.17;62.86;100952.84;4485531;31;33640;-90
2023/12/18 00:33:15;;;;;;;;;;;;;;;5.36;62.48;100950.62;4488378;31;34014;-90
2023/12/18 00:35:43;;;;;;;;;;;;;;;5.41;62.06;100956.03;4481267;31;34650;-87
2023/12/18 00:38:10;;;;;;;;;;;;;;;5.46;61.51;100965.84;4480343;31;33813;-87
2023/12/18 00:40:40;;;;;;;;;;;;;;;5.36;61.68;100948.03;4509355;31;33249;-87
2023/12/18 00:43:07;;;;;;;;;;;;;;;5.42;61.53;100956.16;4483996;31;33283;-88
2023/12/18 00:45:34;;;;;;;;;;;;;;;5.29;61.81;100943.31;4486698;31;33431;-94
2023/12/18 00:48:02;;;;;;;;;;;;;;;5.34;61.88;100937.69;4486416;31;34731;-87
2023/12/18 00:50:30;;;;;;;;;;;;;;;5.24;62.11;100935.31;4491597;31;32088;-91
2023/12/18 00:52:57;;;;;;;;;;;;;;;5.23;62.26;100935.25;4501721;31;34651;-89
2023/12/18 00:55:25;;;;;;;;;;;;;;;5.22;62.22;100944.59;4490314;31;33121;-92
2023/12/18 00:57:52;;;;;;;;;;;;;;;5.11;62.42;100935.31;4485325;31;33124;-90
2023/12/18 01:00:21;;;;;;;;;;;;;;;5.13;62.37;100926.03;4489613;31;33361;-92
2023/12/18 01:02:48;;;;;;;;;;;;;;;5.11;62.52;100936.25;4495524;31;34143;-88
2023/12/18 01:05:16;;;;;;;;;;;;;;;5.20;62.19;100941.06;4476953;31;34285;-88
2023/12/18 01:07:43;;;;;;;;;;;;;;;5.17;62.26;100933.16;4485365;31;34699;-89
2023/12/18 01:10:11;;;;;;;;;;;;;;;5.11;62.15;100930.19;4499671;31;33940;-87
2023/12/18 01:12:38;;;;;;;;;;;;;;;5.15;62.04;100939.88;4494381;31;34213;-89
2023/12/18 01:15:05;;;;;;;;;;;;;;;5.22;61.81;100930.88;4499789;31;33570;-90
2023/12/18 01:17:33;;;;;;;;;;;;;;;5.14;61.99;100927.81;4511209;31;35108;-88
2023/12/18 01:20:03;;;;;;;;;;;;;;;5.06;62.17;100923.88;4489873;31;32909;-89
2023/12/18 01:22:30;;;;;;;;;;;;;;;5.18;61.81;100928.91;4492660;31;33688;-88
2023/12/18 01:24:58;;;;;;;;;;;;;;;5.17;61.67;100933.16;4495247;31;33618;-88
2023/12/18 01:27:25;;;;;;;;;;;;;;;5.03;61.75;100929.72;4489569;31;34142;-89
2023/12/18 01:29:53;;;;;;;;;;;;;;;4.92;61.96;100929.81;4484991;31;33064;-89
2023/12/18 01:32:20;;;;;;;;;;;;;;;4.96;61.71;100936.94;4499982;31;34027;-89
2023/12/18 01:34:48;;;;;;;;;;;;;;;4.93;61.83;100931.63;4493805;31;35049;-86
2023/12/18 01:37:15;;;;;;;;;;;;;;;5.05;61.50;100933.28;4511323;31;34804;-89
2023/12/18 01:39:42;;;;;;;;;;;;;;;5.14;61.03;100932.97;4511569;31;34298;-87
2023/12/18 01:42:09;;;;;;;;;;;;;;;5.11;60.96;100925.97;4508244;31;34074;-89
2023/12/18 01:44:37;;;;;;;;;;;;;;;4.93;61.37;100919.66;4509045;31;34083;-88
2023/12/18 01:47:04;;;;;;;;;;;;;;;4.92;61.51;100929.81;4506303;31;35172;-88
2023/12/18 01:49:31;;;;;;;;;;;;;;;4.93;61.43;100926.50;4490400;31;33294;-87
2023/12/18 01:51:59;;;;;;;;;;;;;;;4.74;61.89;100919.28;4502839;31;33899;-90
2023/12/18 01:54:26;;;;;;;;;;;;;;;4.60;62.24;100913.25;4507238;31;33513;-88
2023/12/18 01:56:54;;;;;;;;;;;;;;;4.73;61.85;100918.37;4486650;31;33469;-87
2023/12/18 01:59:21;;;;;;;;;;;;;;;4.68;62.04;100912.06;4492417;31;33658;-88
2023/12/18 02:01:48;;;;;;;;;;;;;;;4.78;61.84;100910.97;4494036;31;34786;-87
2023/12/18 02:04:16;;;;;;;;;;;;;;;4.77;61.61;100902.38;4501249;31;34212;-87
2023/12/18 02:06:44;;;;;;;;;;;;;;;4.76;61.55;100908.28;4499642;31;34303;-87
2023/12/18 02:09:11;;;;;;;;;;;;;;;4.83;61.38;100900.19;4511400;31;33432;-87
2023/12/18 02:11:39;;;;;;;;;;;;;;;4.68;61.69;100909.50;4487821;31;33995;-87
2023/12/18 02:14:06;;;;;;;;;;;;;;;4.55;62.13;100906.94;4491281;31;34260;-87
2023/12/18 02:16:33;;;;;;;;;;;;;;;4.62;62.01;100903.94;4505630;31;33820;-89
2023/12/18 02:19:00;;;;;;;;;;;;;;;4.55;62.18;100906.94;4512890;31;34324;-88
2023/12/18 02:21:28;;;;;;;;;;;;;;;4.60;61.95;100897.84;4502653;31;34703;-88
2023/12/18 02:23:55;;;;;;;;;;;;;;;4.65;61.91;100899.00;4512773;31;33845;-88
2023/12/18 02:26:23;;;;;;;;;;;;;;;4.75;61.64;100898.81;4509638;31;33891;-87
2023/12/18 02:28:50;;;;;;;;;;;;;;;4.69;61.91;100889.81;4486744;31;33455;-91
2023/12/18 02:31:18;;;;;;;;;;;;;;;4.63;62.35;100892.91;4499655;31;34048;-88
2023/12/18 02:33:48;;;;;;;;;;;;;;;4.70;62.12;100887.38;4486916;31;34804;-89
2023/12/18 02:36:17;;;;;;;;;;;;;;;4.81;61.66;100883.81;4511745;31;35049;-88
2023/12/18 02:38:44;;;;;;;;;;;;;;;4.77;61.71;100886.06;4504976;31;33381;-88
2023/12/18 02:41:11;;;;;;;;;;;;;;;4.60;62.29;100879.84;4504014;31;34776;-88
2023/12/18 02:43:39;;;;;;;;;;;;;;;4.69;62.18;100874.41;4482537;31;33332;-88
2023/12/18 02:46:06;;;;;;;;;;;;;;;4.73;62.08;100877.25;4477756;31;33771;-87
2023/12/18 02:48:33;;;;;;;;;;;;;;;4.72;62.29;100874.59;4503663;31;33870;-88
2023/12/18 02:51:02;;;;;;;;;;;;;;;4.70;62.32;100876.19;4493278;31;33881;-87
2023/12/18 02:53:29;;;;;;;;;;;;;;;4.63;62.32;100880.06;4484038;31;35278;-88
2023/12/18 02:55:56;;;;;;;;;;;;;;;4.86;61.73;100874.69;4499296;31;34112;-88
2023/12/18 02:58:24;;;;;;;;;;;;;;;4.70;61.95;100879.66;4493642;31;33232;-88
2023/12/18 03:00:51;;;;;;;;;;;;;;;4.81;61.54;100882.88;4490134;31;33761;-88
2023/12/18 03:03:19;;;;;;;;;;;;;;;4.74;61.92;100894.47;4490719;31;33187;-87
2023/12/18 03:05:47;;;;;;;;;;;;;;;4.82;61.66;100888.13;4479565;31;34339;-88
2023/12/18 03:08:14;;;;;;;;;;;;;;;4.77;61.88;100879.25;4498720;31;33545;-87
2023/12/18 03:10:41;;;;;;;;;;;;;;;4.78;62.10;100887.84;4509438;31;33635;-88
2023/12/18 03:13:08;;;;;;;;;;;;;;;4.73;62.04;100884.09;4498879;31;35001;-88
2023/12/18 03:15:36;;;;;;;;;;;;;;;4.71;62.34;100890.81;4505024;31;35037;-88
2023/12/18 03:18:03;;;;;;;;;;;;;;;4.58;62.57;100891.69;4510163;31;33288;-88
2023/12/18 03:20:31;;;;;;;;;;;;;;;4.53;62.84;100883.72;4511854;31;33990;-89
2023/12/18 03:22:58;;;;;;;;;;;;;;;4.61;62.44;100886.75;4500468;31;35080;-89
2023/12/18 03:25:25;;;;;;;;;;;;;;;4.56;62.67;100890.72;4505311;31;34249;-89
2023/12/18 03:27:53;;;;;;;;;;;;;;;4.68;62.37;100886.38;4466589;31;35130;-88
2023/12/18 03:30:20;;;;;;;;;;;;;;;4.75;62.20;100885.09;4475444;31;32546;-87
2023/12/18 03:32:47;;;;;;;;;;;;;;;4.70;62.08;100877.09;4493023;31;35263;-89
2023/12/18 03:35:15;;;;;;;;;;;;;;;4.72;62.14;100877.19;4473587;31;34530;-87
2023/12/18 03:37:42;;;;;;;;;;;;;;;4.64;62.25;100880.16;4491003;31;33026;-89
2023/12/18 03:40:10;;;;;;;;;;;;;;;4.56;62.52;100881.34;4496237;31;34012;-88
2023/12/18 03:42:38;;;;;;;;;;;;;;;4.41;63.01;100876.91;4506424;31;34225;-88
2023/12/18 03:45:06;;;;;;;;;;;;;;;4.30;63.32;100877.09;4500957;31;34381;-89
2023/12/18 03:47:33;;;;;;;;;;;;;;;4.41;63.07;100872.66;4509119;31;33578;-88
2023/12/18 03:50:01;;;;;;;;;;;;;;;4.43;63.06;100863.34;4510047;31;33790;-87
2023/12/18 03:52:29;;;;;;;;;;;;;;;4.25;63.16;100865.66;4505359;31;33982;-89
2023/12/18 03:54:56;;;;;;;;;;;;;;;4.27;63.34;100864.03;4509522;31;33956;-88
2023/12/18 03:57:24;;;;;;;;;;;;;;;4.46;62.91;100863.56;4502582;31;34020;-88
2023/12/18 03:59:51;;;;;;;;;;;;;;;4.56;62.51;100852.19;4504262;31;34182;-88
2023/12/18 04:02:18;;;;;;;;;;;;;;;4.58;62.40;100845.47;4484069;31;34192;-88
2023/12/18 04:04:46;;;;;;;;;;;;;;;4.54;62.57;100858.91;4491595;31;33442;-88
2023/12/18 04:07:13;;;;;;;;;;;;;;;4.63;62.07;100857.81;4497436;31;32912;-88
2023/12/18 04:09:40;;;;;;;;;;;;;;;4.66;62.01;100853.66;4492591;31;33357;-88
2023/12/18 04:12:08;;;;;;;;;;;;;;;4.50;62.64;100859.50;4504559;31;34535;-87
2023/12/18 04:14:35;;;;;;;;;;;;;;;4.49;62.91;100858.62;4482581;31;33299;-88
2023/12/18 04:17:02;;;;;;;;;;;;;;;4.68;62.34;100858.09;4485786;31;32961;-87
2023/12/18 04:19:30;;;;;;;;;;;;;;;4.53;62.53;100859.72;4511754;31;35337;-88
2023/12/18 04:21:57;;;;;;;;;;;;;;;4.51;62.76;100859.63;4508560;31;35116;-87
2023/12/18 04:24:24;;;;;;;;;;;;;;;4.52;62.53;100855.38;4510490;31;34346;-88
2023/12/18 04:26:53;;;;;;;;;;;;;;;4.37;62.69;100852.72;4513068;31;33495;-88
2023/12/18 04:29:21;;;;;;;;;;;;;;;4.44;62.53;100856.56;4489609;31;33892;-88
2023/12/18 04:31:51;;;;;;;;;;;;;;;4.48;62.65;100858.53;4509857;31;35194;-88
2023/12/18 04:34:19;;;;;;;;;;;;;;;4.32;62.83;100851.53;4509934;31;34117;-88
2023/12/18 04:36:46;;;;;;;;;;;;;;;4.38;62.91;100854.47;4513362;31;33080;-88
2023/12/18 04:39:14;;;;;;;;;;;;;;;4.49;62.46;100847.47;4483728;31;34169;-87
2023/12/18 04:41:41;;;;;;;;;;;;;;;4.49;62.30;100855.16;4500126;31;34449;-88
2023/12/18 04:44:08;;;;;;;;;;;;;;;4.47;62.38;100854.16;4508657;31;33657;-88
2023/12/18 04:46:36;;;;;;;;;;;;;;;4.48;62.47;100855.97;4480737;31;34251;-88
2023/12/18 04:49:04;;;;;;;;;;;;;;;4.60;62.07;100854.16;4473616;31;33822;-88
2023/12/18 04:51:32;;;;;;;;;;;;;;;4.56;62.04;100852.19;4497164;31;34337;-87
2023/12/18 04:53:59;;;;;;;;;;;;;;;4.41;62.12;100852.09;4484380;31;35110;-88
2023/12/18 04:56:27;;;;;;;;;;;;;;;4.37;62.05;100853.59;4501193;31;33353;-88
2023/12/18 04:58:54;;;;;;;;;;;;;;;4.43;61.99;100845.38;4490045;31;32167;-87
2023/12/18 05:01:21;;;;;;;;;;;;;;;4.41;61.87;100856.38;4497475;31;33454;-89
2023/12/18 05:03:49;;;;;;;;;;;;;;;4.49;61.50;100850.91;4493214;31;33394;-88
2023/12/18 05:06:20;;;;;;;;;;;;;;;4.47;61.52;100846.47;4494549;31;33964;-88
2023/12/18 05:08:48;;;;;;;;;;;;;;;4.32;61.89;100849.84;4503866;31;34956;-88
2023/12/18 05:11:16;;;;;;;;;;;;;;;4.45;61.38;100851.50;4508945;31;33899;-88
2023/12/18 05:13:43;;;;;;;;;;;;;;;4.29;62.01;100856.47;4498749;31;33665;-88
2023/12/18 05:16:11;;;;;;;;;;;;;;;4.42;61.72;100855.56;4515750;31;33483;-87
2023/12/18 05:18:39;;;;;;;;;;;;;;;4.31;61.83;100860.87;4500644;31;34890;-87
2023/12/18 05:21:06;;;;;;;;;;;;;;;4.48;61.46;100859.41;4507745;31;35171;-88
2023/12/18 05:23:33;;;;;;;;;;;;;;;4.51;60.99;100848.44;4497734;31;33895;-88
2023/12/18 05:26:01;;;;;;;;;;;;;;;4.50;61.11;100854.37;4506441;31;33053;-86
2023/12/18 05:28:28;;;;;;;;;;;;;;;4.43;61.16;100854.75;4483232;31;32358;-88
2023/12/18 05:30:56;;;;;;;;;;;;;;;4.48;61.02;100855.97;4488089;31;33980;-87
2023/12/18 05:33:25;;;;;;;;;;;;;;;4.37;61.31;100843.31;4508457;31;33971;-88
2023/12/18 05:35:52;;;;;;;;;;;;;;;4.45;61.17;100848.06;4500323;31;33590;-88
2023/12/18 05:38:19;;;;;;;;;;;;;;;4.35;61.39;100850.03;4502657;31;34998;-89
2023/12/18 05:40:47;;;;;;;;;;;;;;;4.45;61.00;100848.06;4489566;31;33223;-87
2023/12/18 05:43:14;;;;;;;;;;;;;;;4.32;61.32;100847.28;4488159;31;34748;-88
2023/12/18 05:45:41;;;;;;;;;;;;;;;4.32;61.43;100854.97;4510864;31;33082;-88
2023/12/18 05:48:09;;;;;;;;;;;;;;;4.16;61.90;100852.19;4492721;31;33443;-89
2023/12/18 05:50:36;;;;;;;;;;;;;;;4.14;62.19;100846.97;4502084;31;34888;-86
2023/12/18 05:53:03;;;;;;;;;;;;;;;4.22;62.25;100844.00;4507505;31;34455;-87
2023/12/18 05:55:31;;;;;;;;;;;;;;;4.35;61.91;100850.03;4504581;31;34225;-87
2023/12/18 05:57:58;;;;;;;;;;;;;;;4.11;63.13;100861.28;4512081;31;34211;-88
2023/12/18 06:00:25;;;;;;;;;;;;;;;3.99;63.88;100855.34;4507951;31;35187;-88
2023/12/18 06:02:53;;;;;;;;;;;;;;;4.13;63.87;100852.91;4503723;31;35062;-87
2023/12/18 06:05:20;;;;;;;;;;;;;;;4.19;63.80;100862.66;4512892;31;33695;-87
2023/12/18 06:07:47;;;;;;;;;;;;;;;4.20;63.95;100867.00;4506944;31;34001;-88
2023/12/18 06:10:15;;;;;;;;;;;;;;;4.19;64.11;100864.34;4502679;31;35119;-88
2023/12/18 06:12:42;;;;;;;;;;;;;;;4.30;63.87;100863.38;4512876;31;34351;-89
2023/12/18 06:15:10;;;;;;;;;;;;;;;4.21;64.15;100860.22;4513263;31;34242;-88
2023/12/18 06:17:37;;;;;;;;;;;;;;;4.24;64.21;100856.12;4508068;31;34425;-87
2023/12/18 06:20:05;;;;;;;;;;;;;;;4.35;64.03;100857.72;4506783;31;35347;-90
2023/12/18 06:22:33;;;;;;;;;;;;;;;4.40;63.95;100860.63;4503933;31;34236;-88
2023/12/18 06:25:02;;;;;;;;;;;;;;;4.49;63.46;100860.31;4494589;31;33210;-88
2023/12/18 06:27:29;;;;;;;;;;;;;;;4.50;63.36;100857.81;4510528;31;34201;-88
2023/12/18 06:29:56;;;;;;;;;;;;;;;4.57;63.02;100853.97;4510164;31;34257;-89
2023/12/18 06:32:24;;;;;;;;;;;;;;;4.60;62.95;100854.16;4512420;31;33905;-89
2023/12/18 06:34:51;;;;;;;;;;;;;;;4.56;63.05;100855.66;4508592;31;33632;-87
2023/12/18 06:37:19;;;;;;;;;;;;;;;4.56;62.88;100867.63;4504966;31;33324;-89
2023/12/18 06:39:46;;;;;;;;;;;;;;;4.62;62.78;100870.56;4506883;31;34060;-89
2023/12/18 06:42:13;;;;;;;;;;;;;;;4.44;63.11;100867.72;4510812;31;34460;-89
2023/12/18 06:44:41;;;;;;;;;;;;;;;4.34;63.54;100870.47;4502897;31;33144;-89
2023/12/18 06:47:08;;;;;;;;;;;;;;;4.55;62.99;100878.69;4502928;31;34175;-88
2023/12/18 06:49:35;;;;;;;;;;;;;;;4.54;63.16;100874.31;4493851;31;33532;-87
2023/12/18 06:52:03;;;;;;;;;;;;;;;4.28;64.01;100872.62;4511433;31;34048;-89
2023/12/18 06:54:30;;;;;;;;;;;;;;;4.42;63.76;100878.66;4501231;31;32848;-88
2023/12/18 06:56:58;;;;;;;;;;;;;;;4.27;64.15;100879.44;4508683;31;33806;-88
2023/12/18 06:59:25;;;;;;;;;;;;;;;3.98;65.09;100879.22;4505702;31;34078;-88
2023/12/18 07:01:52;;;;;;;;;;;;;;;4.11;64.94;100877.56;4499786;31;34284;-88
2023/12/18 07:04:20;;;;;;;;;;;;;;;4.33;64.20;100885.00;4494708;31;33473;-88
2023/12/18 07:06:47;;;;;;;;;;;;;;;4.05;65.00;100883.97;4504337;31;34478;-88
2023/12/18 07:09:14;;;;;;;;;;;;;;;4.01;65.52;100884.53;4513054;31;34988;-88
2023/12/18 07:11:42;;;;;;;;;;;;;;;4.21;65.21;100889.34;4512712;31;33792;-87
2023/12/18 07:14:09;;;;;;;;;;;;;;;4.12;65.87;100889.59;4511754;31;33700;-88
2023/12/18 07:16:36;;;;;;;;;;;;;;;4.27;65.21;100887.16;4501967;31;33616;-89
2023/12/18 07:19:04;;;;;;;;;;;;;;;4.49;64.54;100888.56;4492352;31;34732;-87
2023/12/18 07:21:31;;;;;;;;;;;;;;;4.48;64.54;100885.09;4505303;31;34827;-86
2023/12/18 07:23:59;;;;;;;;;;;;;;;4.50;64.48;100887.75;4511659;31;34164;-88
2023/12/18 07:26:26;;;;;;;;;;;;;;;4.36;64.92;100886.88;4512846;31;33792;-88
2023/12/18 07:28:53;;;;;;;;;;;;;;;4.57;64.44;100888.25;4495550;31;35164;-88
2023/12/18 07:31:20;;;;;;;;;;;;;;;4.46;64.89;100885.78;4512050;31;35150;-88
2023/12/18 07:33:48;;;;;;;;;;;;;;;4.59;64.42;100888.37;4512992;31;34220;-88
2023/12/18 07:36:15;;;;;;;;;;;;;;;4.59;64.34;100890.94;4513438;31;33795;-88
2023/12/18 07:38:45;;;;;;;;;;;;;;;4.68;64.09;100886.38;4504518;31;34299;-87
2023/12/18 07:41:20;;;;;;;;;;;;;;;4.64;64.29;100884.41;4507285;31;33854;-87
2023/12/18 07:43:47;;;;;;;;;;;;;;;4.69;64.07;100880.44;4500910;31;34322;-87
2023/12/18 07:46:21;;;;;;;;;;;;;;;4.69;64.01;100882.13;4503824;31;34828;-88
2023/12/18 07:48:49;;;;;;;;;;;;;;;4.60;64.15;100887.56;4512159;31;34125;-87
2023/12/18 07:51:16;;;;;;;;;;;;;;;4.69;63.95;100884.69;4508087;31;81539;-87
2023/12/18 07:53:44;;;;;;;;;;;;;;;4.08;65.76;100881.59;4503732;31;33289;-88
2023/12/18 07:56:12;;;;;;;;;;;;;;;4.38;64.40;100888.75;4508908;31;33970;-87
2023/12/18 07:58:39;;;;;;;;;;;;;;;4.43;64.34;100890.72;4513120;31;34092;-87
2023/12/18 08:01:06;;;;;;;;;;;;;;;4.50;64.23;100890.31;4508876;31;34028;-87
2023/12/18 08:03:34;;;;;;;;;;;;;;;4.69;63.74;100893.28;4504290;31;32751;-88
2023/12/18 08:06:01;;;;;;;;;;;;;;;4.81;63.38;100888.94;4511410;31;33858;-88
2023/12/18 08:08:28;;;;;;;;;;;;;;;4.79;63.32;100892.19;4493995;31;33926;-86
2023/12/18 08:10:56;;;;;;;;;;;;;;;5.01;62.60;100894.44;4513082;31;35050;-88
2023/12/18 08:13:23;;;;;;;;;;;;;;;4.87;63.15;100881.59;4490366;31;33287;-86
2023/12/18 08:15:50;;;;;;;;;;;;;;;5.02;62.66;100875.66;4500396;31;33800;-88
2023/12/18 08:18:18;;;;;;;;;;;;;;;5.07;62.50;100874.25;4501399;31;34005;-88
2023/12/18 08:20:45;;;;;;;;;;;;;;;4.78;63.29;100875.00;4501319;31;33857;-89
2023/12/18 08:23:12;;;;;;;;;;;;;;;4.83;63.35;100869.34;4507196;31;34316;-89
2023/12/18 08:25:40;;;;;;;;;;;;;;;4.82;63.57;100865.00;4504377;31;34147;-88
2023/12/18 08:28:07;;;;;;;;;;;;;;;4.93;63.63;100872.50;4502576;31;35190;-89
2023/12/18 08:30:35;;;;;;;;;;;;;;;4.99;63.64;100872.88;4503057;31;34387;-89
2023/12/18 08:33:02;;;;;;;;;;;;;;;4.81;64.36;100863.25;4493355;31;32489;-91
2023/12/18 08:35:30;;;;;;;;;;;;;;;4.96;64.28;100867.53;4499837;31;34669;-92
2023/12/18 08:37:58;;;;;;;;;;;;;;;4.83;64.88;100860.75;4514972;31;33700;-90
2023/12/18 08:40:26;;;;;;;;;;;;;;;4.95;64.81;100860.63;4501352;31;35190;-90
2023/12/18 08:42:53;;;;;;;;;;;;;;;5.07;64.44;100863.94;4514642;31;33534;-89
2023/12/18 08:45:20;;;;;;;;;;;;;;;5.13;64.28;100865.22;4511059;31;34973;-89
2023/12/18 08:47:48;;;;;;;;;;;;;;;5.20;64.32;100871.66;4496317;31;35040;-90
2023/12/18 08:50:15;;;;;;;;;;;;;;;5.18;64.41;100874.91;4507947;31;35161;-89
2023/12/18 08:52:42;;;;;;;;;;;;;;;5.26;64.27;100869.44;4514980;31;33989;-90
2023/12/18 08:55:10;;;;;;;;;;;;;;;5.40;64.03;100864.25;4508132;31;34966;-89
2023/12/18 08:57:37;;;;;;;;;;;;;;;5.35;64.22;100862.28;4515182;31;35118;-88
2023/12/18 09:00:06;;;;;;;;;;;;;;;5.41;64.11;100866.03;4502421;31;33942;-88
2023/12/18 09:02:34;;;;;;;;;;;;;;;5.50;64.03;100871.75;4509857;31;33556;-87
2023/12/18 09:05:01;;;;;;;;;;;;;;;5.43;63.99;100874.72;4499989;31;34114;-87
2023/12/18 09:07:28;;;;;;;;;;;;;;;5.31;64.38;100878.34;4503395;31;34249;-87
2023/12/18 09:09:55;;;;;;;;;;;;;;;5.28;64.74;100874.69;4515947;31;34497;-89
2023/12/18 09:12:23;;;;;;;;;;;;;;;5.30;64.94;100867.94;4515709;31;33377;-87
2023/12/18 09:14:50;;;;;;;;;;;;;;;5.43;64.81;100869.59;4515648;31;33899;-87
2023/12/18 09:17:17;;;;;;;;;;;;;;;5.45;64.77;100876.56;4501161;31;34077;-89
2023/12/18 09:19:44;;;;;;;;;;;;;;;5.51;64.62;100873.50;4503211;31;34782;-87
2023/12/18 09:22:12;;;;;;;;;;;;;;;5.39;64.80;100875.34;4485639;31;33028;-89
2023/12/18 09:24:39;;;;;;;;;;;;;;;5.29;65.51;100872.19;4500201;31;34232;-89
2023/12/18 09:27:07;;;;;;;;;;;;;;;5.44;65.27;100863.63;4499914;31;33688;-88
2023/12/18 09:29:34;;;;;;;;;;;;;;;5.65;64.63;100864.06;4499934;31;34136;-91
2023/12/18 09:32:02;;;;;;;;;;;;;;;5.86;64.01;100863.59;4499634;31;33323;-88
2023/12/18 09:34:30;;;;;;;;;;;;;;;5.91;63.73;100852.69;4499933;31;34293;-88
2023/12/18 09:36:58;;;;;;;;;;;;;;;6.06;63.28;100851.94;4499695;31;34186;-90
2023/12/18 09:39:25;;;;;;;;;;;;;;;5.66;64.37;100853.84;4499815;31;35200;-89
2023/12/18 09:41:53;;;;;;;;;;;;;;;5.50;64.91;100849.47;4503521;31;33766;-88
2023/12/18 09:44:20;;;;;;;;;;;;;;;5.69;64.42;100851.44;4515034;31;34916;-87
2023/12/18 09:46:47;;;;;;;;;;;;;;;5.83;63.99;100848.00;4500894;31;34334;-88
2023/12/18 09:49:15;;;;;;;;;;;;;;;5.99;63.53;100834.38;4515471;31;33960;-87
2023/12/18 09:51:42;;;;;;;;;;;;;;;6.14;63.18;100833.44;4515389;31;33060;-88
2023/12/18 09:54:10;;;;;;;;;;;;;;;6.09;63.17;100835.78;4500974;31;34080;-89
2023/12/18 09:56:37;;;;;;;;;;;;;;;6.12;63.13;100828.22;4486382;31;33645;-87
2023/12/18 09:59:04;;;;;;;;;;;;;;;6.07;63.19;100829.66;4485566;31;34045;-89
2023/12/18 10:01:33;;;;;;;;;;;;;;;5.93;63.82;100827.97;4485167;31;34521;-88
2023/12/18 10:04:01;;;;;;;;;;;;;;;6.08;63.43;100823.69;4487026;31;33915;-88
2023/12/18 10:06:28;;;;;;;;;;;;;;;6.00;63.70;100820.69;4499409;31;35162;-90
2023/12/18 10:08:56;;;;;;;;;;;;;;;6.09;63.59;100828.94;4525883;31;33998;-91
2023/12/18 10:11:24;;;;;;;;;;;;;;;5.74;64.89;100834.59;4515939;31;33323;-90
2023/12/18 10:13:52;;;;;;;;;;;;;;;6.09;64.01;100826.34;4507525;31;34591;-90
2023/12/18 10:16:19;;;;;;;;;;;;;;;6.28;63.52;100817.97;4492310;31;35096;-93
2023/12/18 10:18:46;;;;;;;;;;;;;;;6.32;63.35;100812.19;4484504;31;34435;-90
2023/12/18 10:21:14;;;;;;;;;;;;;;;6.53;62.89;100802.22;4503450;31;33528;-89
2023/12/18 10:23:41;;;;;;;;;;;;;;;6.40;63.25;100801.44;4489457;31;33725;-88
2023/12/18 10:26:09;;;;;;;;;;;;;;;6.41;63.71;100801.53;4499204;31;33737;-89
2023/12/18 10:28:36;;;;;;;;;;;;;;;6.18;64.34;100802.84;4489188;31;34787;-89
2023/12/18 10:31:08;;;;;;;;;;;;;;;6.65;63.02;100799.41;4522869;31;33424;-88
2023/12/18 10:33:37;;;;;;;;;;;;;;;6.64;62.88;100802.81;4492686;31;33853;-90
2023/12/18 10:36:06;;;;;;;;;;;;;;;6.66;62.84;100795.16;4490736;31;34387;-90
2023/12/18 10:38:34;;;;;;;;;;;;;;;6.75;62.84;100796.53;4491944;31;32975;-89
2023/12/18 10:41:02;;;;;;;;;;;;;;;6.75;62.76;100796.53;4494320;31;33332;-90
2023/12/18 10:43:31;;;;;;;;;;;;;;;6.69;63.06;100791.03;4484852;31;34161;-89
2023/12/18 10:45:59;;;;;;;;;;;;;;;6.78;62.82;100795.81;4492366;31;33961;-88
2023/12/18 10:48:27;;;;;;;;;;;;;;;6.99;62.26;100801.22;4501832;31;33611;-89
2023/12/18 10:50:55;;;;;;;;;;;;;;;6.76;62.96;100790.56;4505416;31;34332;-92
2023/12/18 10:53:25;;;;;;;;;;;;;;;6.73;63.09;100776.63;4494810;31;33828;-87
2023/12/18 10:55:53;;;;;;;;;;;;;;;6.89;62.67;100784.38;4483871;31;34095;-90
2023/12/18 10:58:21;;;;;;;;;;;;;;;7.02;62.20;100780.78;4496143;31;35069;-92
2023/12/18 11:00:49;;;;;;;;;;;;;;;6.93;62.79;100781.19;4514963;31;34437;-86
2023/12/18 11:03:18;;;;;;;;;;;;;;;6.95;62.55;100778.66;4500845;31;34052;-93
2023/12/18 11:05:48;;;;;;;;;;;;;;;7.06;62.05;100777.53;4501698;31;34413;-87
2023/12/18 11:08:15;;;;;;;;;;;;;;;6.98;62.51;100773.69;4486563;31;34042;-86
2023/12/18 11:10:42;;;;;;;;;;;;;;;7.03;62.02;100772.22;4510313;31;33301;-86
2023/12/18 11:13:22;;;;;;;;;;;;;;;7.21;61.53;100770.59;4514692;31;33712;-87
2023/12/18 11:15:59;;;;;;;;;;;;;;;6.91;63.04;100763.84;4511616;31;35202;-88
2023/12/18 11:18:37;;;;;;;;;;;;;;;7.05;62.05;100762.87;4502212;31;35185;-89
2023/12/18 11:21:05;;;;;;;;;;;;;;;6.90;62.69;100755.22;4492514;31;34003;-87
2023/12/18 11:23:41;;;;;;;;;;;;;;;7.28;61.78;100754.66;4512770;31;34107;-92
2023/12/18 11:26:10;;;;;;;;;;;;;;;7.41;61.66;100750.09;4484843;31;34366;-93
2023/12/18 11:28:37;;;;;;;;;;;;;;;7.69;60.94;100750.69;4513299;31;34416;-89
2023/12/18 11:31:06;;;;;;;;;;;;;;;8.06;59.95;100742.13;4486301;31;33035;-89
2023/12/18 11:33:33;;;;;;;;;;;;;;;7.49;61.34;100744.50;4490205;31;33437;-88
2023/12/18 11:36:12;;;;;;;;;;;;;;;7.62;61.34;100738.28;4514762;31;34042;-89
2023/12/18 11:38:40;;;;;;;;;;;;;;;7.75;61.04;100726.84;4491566;31;33936;-88
2023/12/18 11:41:07;;;;;;;;;;;;;;;7.73;60.90;100736.25;4488623;31;33284;-87
2023/12/18 11:43:35;;;;;;;;;;;;;;;7.62;61.65;100739.97;4495363;31;33870;-86
2023/12/18 11:46:08;;;;;;;;;;;;;;;7.60;61.83;100737.31;4510293;31;33832;-88
2023/12/18 11:48:44;;;;;;;;;;;;;;;7.47;62.44;100734.94;4498633;31;34293;-85
2023/12/18 11:51:17;;;;;;;;;;;;;;;7.62;61.76;100730.53;4485145;31;34272;-89
2023/12/18 11:53:47;;;;;;;;;;;;;;;7.85;60.97;100721.34;4493821;31;34756;-89
2023/12/18 11:56:14;;;;;;;;;;;;;;;7.89;60.68;100728.41;4483953;31;34246;-90
2023/12/18 11:58:42;;;;;;;;;;;;;;;7.74;61.58;100727.66;4497786;31;34569;-89
2023/12/18 12:01:10;;;;;;;;;;;;;;;7.88;60.65;100718.91;4486679;31;32404;-88
2023/12/18 12:03:37;;;;;;;;;;;;;;;7.82;60.77;100715.13;4500112;31;33812;-91
2023/12/18 12:06:08;;;;;;;;;;;;;;;7.58;61.58;100707.97;4499831;31;33151;-90
2023/12/18 12:08:47;;;;;;;;;;;;;;;7.79;60.34;100706.41;4504329;31;35303;-87
2023/12/18 12:11:15;;;;;;;;;;;;;;;7.71;59.57;100697.41;4509230;31;34242;-90
2023/12/18 12:13:42;;;;;;;;;;;;;;;7.67;59.33;100703.25;4488701;31;32981;-93
2023/12/18 12:16:14;;;;;;;;;;;;;;;8.04;57.85;100693.00;4487001;31;34416;-89
2023/12/18 12:18:46;;;;;;;;;;;;;;;7.63;59.12;100683.25;4491826;31;34120;-87
2023/12/18 12:21:14;;;;;;;;;;;;;;;8.12;57.02;100682.13;4473575;31;33206;-91
2023/12/18 12:23:41;;;;;;;;;;;;;;;8.23;56.55;100687.00;4500089;31;34950;-86
2023/12/18 12:26:12;;;;;;;;;;;;;;;7.82;57.44;100682.44;4500149;31;35150;-91
2023/12/18 12:28:40;;;;;;;;;;;;;;;7.74;57.59;100679.50;4501583;31;34381;-86
2023/12/18 12:31:07;;;;;;;;;;;;;;;8.20;56.11;100671.34;4515265;31;34239;-89
2023/12/18 12:33:45;;;;;;;;;;;;;;;8.05;57.18;100675.78;4508596;31;34268;-91
2023/12/18 12:36:21;;;;;;;;;;;;;;;8.04;57.64;100668.88;4511547;31;34882;-89
2023/12/18 12:38:49;;;;;;;;;;;;;;;8.25;57.15;100668.97;4504784;31;33977;-91
2023/12/18 12:41:36;;;;;;;;;;;;;;;8.13;57.23;100664.13;4501760;31;33525;-91
2023/12/18 12:44:22;;;;;;;;;;;;;;;8.12;57.44;100662.34;4510354;31;34878;-88
2023/12/18 12:46:49;;;;;;;;;;;;;;;8.28;57.36;100664.81;4486319;31;34238;-86
2023/12/18 12:49:18;;;;;;;;;;;;;;;8.13;57.60;100656.38;4500043;31;35117;-88
2023/12/18 12:51:48;;;;;;;;;;;;;;;8.21;57.77;100652.44;4499936;31;33668;-87